Time;durP1;ratioP1;P1;durP2;ratioP2;P2;SDS_P1;SDS_P2;PMS_P1;PMS_P2;Temp;Humidity;BMP_temperature;BMP_pressure;BME280_temperature;BME280_humidity;BME280_pressure;Samples;Min_cycle;Max_cycle;Signal;HPM_P1;HPM_P2
2022/09/15 00:00:17;;;;;;;4.63;1.15;;;25.70;99.90;;;;;;4949340;23;20486;-53
2022/09/15 00:02:43;;;;;;;8.05;1.48;;;25.70;99.90;;;;;;4953814;28;20082;-53
2022/09/15 00:05:10;;;;;;;9.13;1.00;;;25.80;99.90;;;;;;4967287;28;20019;-52
2022/09/15 00:07:35;;;;;;;8.25;1.88;;;25.70;99.90;;;;;;4962316;28;20462;-53
2022/09/15 00:10:02;;;;;;;3.38;0.95;;;25.80;99.90;;;;;;4969963;28;20029;-52
2022/09/15 00:12:28;;;;;;;4.85;0.90;;;25.80;99.90;;;;;;4971647;28;20505;-52
2022/09/15 00:14:54;;;;;;;5.45;1.20;;;25.80;99.90;;;;;;4970563;28;20066;-53
2022/09/15 00:17:20;;;;;;;5.43;0.80;;;25.80;99.90;;;;;;4959199;28;20031;-52
2022/09/15 00:19:46;;;;;;;2.97;0.70;;;25.80;99.90;;;;;;4961299;28;20023;-52
2022/09/15 00:22:11;;;;;;;4.63;0.95;;;25.80;99.90;;;;;;4967711;28;20031;-53
2022/09/15 00:24:37;;;;;;;4.07;1.05;;;25.80;99.90;;;;;;4959121;28;20395;-53
2022/09/15 00:27:03;;;;;;;3.78;1.38;;;25.80;99.90;;;;;;4966662;28;20030;-53
2022/09/15 00:29:29;;;;;;;3.53;1.00;;;25.80;99.90;;;;;;4965755;28;20041;-54
2022/09/15 00:31:55;;;;;;;8.27;1.45;;;25.80;99.90;;;;;;4964814;28;20015;-55
2022/09/15 00:34:21;;;;;;;2.38;1.17;;;25.80;99.90;;;;;;4968178;28;20030;-53
2022/09/15 00:36:46;;;;;;;5.15;0.80;;;25.80;99.90;;;;;;4969061;28;20014;-54
2022/09/15 00:39:12;;;;;;;6.85;1.00;;;25.70;99.90;;;;;;4966798;28;20038;-54
2022/09/15 00:41:40;;;;;;;3.58;0.82;;;25.80;99.90;;;;;;4966378;28;20030;-55
2022/09/15 00:44:15;;;;;;;3.42;1.05;;;25.70;99.90;;;;;;4953029;28;20035;-54
2022/09/15 00:46:44;;;;;;;2.35;0.80;;;25.70;99.90;;;;;;4966774;28;20033;-54
2022/09/15 00:49:21;;;;;;;7.00;0.70;;;25.70;99.90;;;;;;4965804;28;20451;-54
2022/09/15 00:51:57;;;;;;;3.10;0.77;;;25.70;99.90;;;;;;4964178;28;20030;-55
2022/09/15 00:54:34;;;;;;;6.47;0.90;;;25.70;99.90;;;;;;4953227;28;20475;-55
2022/09/15 00:57:05;;;;;;;4.47;0.77;;;25.70;99.90;;;;;;4966343;28;20041;-55
2022/09/15 00:59:33;;;;;;;4.78;0.60;;;25.60;99.90;;;;;;4972816;23;20042;-45
2022/09/15 01:02:19;;;;;;;2.45;0.75;;;25.60;99.90;;;;;;4914663;29;20147;-46
2022/09/15 01:04:46;;;;;;;3.22;1.27;;;25.60;99.90;;;;;;4914604;29;20152;-45
2022/09/15 01:07:17;;;;;;;3.47;1.33;;;25.60;99.90;;;;;;4914927;29;20032;-48
2022/09/15 01:09:58;;;;;;;4.18;0.70;;;25.60;99.90;;;;;;4910814;29;20107;-49
2022/09/15 01:12:26;;;;;;;4.38;1.00;;;25.60;99.90;;;;;;4902755;29;20065;-49
2022/09/15 01:14:52;;;;;;;4.88;0.95;;;25.60;99.90;;;;;;4914592;29;20068;-48
2022/09/15 01:17:29;;;;;;;3.50;0.80;;;25.50;99.90;;;;;;4913145;29;20486;-49
2022/09/15 01:19:58;;;;;;;3.50;0.88;;;25.50;99.90;;;;;;4912916;29;20118;-49
2022/09/15 01:22:37;;;;;;;3.72;0.93;;;25.50;99.90;;;;;;4914774;29;20043;-47
2022/09/15 01:25:38;;;;;;;4.35;0.75;;;25.50;99.90;;;;;;4914662;29;20024;-48
2022/09/15 01:28:19;;;;;;;4.25;0.68;;;25.50;99.90;;;;;;4903965;29;20036;-48
2022/09/15 01:30:58;;;;;;;4.32;0.80;;;25.50;99.90;;;;;;4912739;29;20099;-48
2022/09/15 01:33:39;;;;;;;4.13;1.00;;;25.50;99.90;;;;;;4914246;29;20031;-49
2022/09/15 01:36:13;;;;;;;6.72;0.77;;;25.50;99.90;;;;;;4914583;29;20036;-47
2022/09/15 01:39:01;;;;;;;5.18;0.98;;;25.50;99.90;;;;;;4916096;29;20366;-48
2022/09/15 01:41:43;;;;;;;5.43;0.80;;;25.50;99.90;;;;;;4917876;29;20029;-49
2022/09/15 01:44:11;;;;;;;2.47;0.90;;;25.40;99.90;;;;;;4907042;29;20076;-48
2022/09/15 01:46:45;;;;;;;6.55;1.08;;;25.50;99.90;;;;;;4918055;29;20020;-48
2022/09/15 01:49:16;;;;;;;5.28;0.75;;;25.40;99.90;;;;;;4918075;29;20031;-49
2022/09/15 01:51:43;;;;;;;3.53;1.48;;;25.40;99.90;;;;;;4918293;29;20039;-48
2022/09/15 01:54:11;;;;;;;2.92;0.85;;;25.40;99.90;;;;;;4918114;29;20032;-48
2022/09/15 01:56:38;;;;;;;6.20;0.95;;;25.40;99.90;;;;;;4916743;29;20092;-49
2022/09/15 01:59:04;;;;;;;7.88;1.20;;;25.40;99.90;;;;;;4905038;29;20115;-49
2022/09/15 02:01:45;;;;;;;5.35;0.77;;;25.40;99.90;;;;;;4899203;29;20045;-49
2022/09/15 02:04:17;;;;;;;6.28;0.90;;;25.40;99.90;;;;;;4905618;29;20039;-49
2022/09/15 02:06:57;;;;;;;4.78;1.20;;;25.40;99.90;;;;;;4917862;29;20028;-50
2022/09/15 02:09:47;;;;;;;6.85;1.38;;;25.40;99.90;;;;;;4917707;29;20088;-49
2022/09/15 02:12:42;;;;;;;5.88;0.93;;;25.30;99.90;;;;;;4911442;29;20040;-49
2022/09/15 02:15:27;;;;;;;3.95;1.02;;;25.30;99.90;;;;;;4906293;29;20024;-48
2022/09/15 02:17:58;;;;;;;2.67;0.95;;;25.30;99.90;;;;;;4917394;29;20042;-48
2022/09/15 02:20:48;;;;;;;3.42;0.70;;;25.30;99.90;;;;;;4917159;29;20055;-49
2022/09/15 02:23:31;;;;;;;3.83;0.95;;;25.30;99.90;;;;;;4898458;29;20021;-49
2022/09/15 02:26:05;;;;;;;3.10;1.30;;;25.30;99.90;;;;;;4910601;29;20028;-48
2022/09/15 02:28:34;;;;;;;4.00;0.70;;;25.30;99.90;;;;;;4917386;29;20131;-48
2022/09/15 02:31:03;;;;;;;2.95;0.70;;;25.30;99.90;;;;;;4913380;29;20039;-49
2022/09/15 02:33:37;;;;;;;7.13;1.30;;;25.30;99.90;;;;;;4931731;29;20377;-49
2022/09/15 02:36:03;;;;;;;4.97;1.40;;;25.30;99.90;;;;;;4913973;29;20025;-48
2022/09/15 02:38:35;;;;;;;5.15;0.80;;;25.30;99.90;;;;;;4912328;29;20051;-48
2022/09/15 02:41:02;;;;;;;6.53;1.10;;;25.30;99.90;;;;;;4911100;29;20446;-48
2022/09/15 02:43:28;;;;;;;4.18;1.00;;;25.30;99.90;;;;;;4916634;29;20107;-49
2022/09/15 02:45:54;;;;;;;7.25;0.80;;;25.30;99.90;;;;;;4916524;29;20024;-48
2022/09/15 02:48:20;;;;;;;4.72;1.27;;;25.30;99.90;;;;;;4915282;29;20035;-49
2022/09/15 02:50:45;;;;;;;5.80;1.08;;;25.30;99.90;;;;;;4915654;29;20473;-49
2022/09/15 02:53:11;;;;;;;4.00;0.90;;;25.30;99.90;;;;;;4916641;29;20071;-49
2022/09/15 02:55:37;;;;;;;5.15;0.73;;;25.20;99.90;;;;;;4916529;29;20388;-49
2022/09/15 02:58:03;;;;;;;5.47;1.40;;;25.30;99.90;;;;;;4916361;29;20027;-49
2022/09/15 03:00:29;;;;;;;3.08;0.73;;;25.20;99.90;;;;;;4916849;29;20047;-48
2022/09/15 03:02:55;;;;;;;2.75;0.55;;;25.30;99.90;;;;;;4916439;29;20424;-48
2022/09/15 03:05:27;;;;;;;5.40;0.95;;;25.30;99.90;;;;;;4913529;29;20028;-49
2022/09/15 03:07:53;;;;;;;1.85;0.80;;;25.30;99.90;;;;;;4916048;29;20028;-49
2022/09/15 03:10:20;;;;;;;4.63;0.95;;;25.30;99.90;;;;;;4916199;29;20032;-49
2022/09/15 03:12:48;;;;;;;3.35;0.68;;;25.30;99.90;;;;;;4916381;29;20028;-49
2022/09/15 03:15:17;;;;;;;5.10;0.90;;;25.30;99.90;;;;;;4902686;29;20032;-48
2022/09/15 03:17:45;;;;;;;4.63;1.02;;;25.30;99.90;;;;;;4914925;29;20040;-48
2022/09/15 03:20:32;;;;;;;3.65;1.00;;;25.30;99.90;;;;;;4915863;29;20028;-49
2022/09/15 03:22:58;;;;;;;5.40;1.02;;;25.30;99.90;;;;;;4916005;29;20051;-48
2022/09/15 03:25:25;;;;;;;4.45;0.88;;;25.30;99.90;;;;;;4915807;29;20028;-49
2022/09/15 03:27:51;;;;;;;5.35;0.80;;;25.30;99.90;;;;;;4915489;29;20412;-49
2022/09/15 03:30:17;;;;;;;2.13;0.65;;;25.20;99.90;;;;;;4916532;29;20020;-49
2022/09/15 03:32:43;;;;;;;5.03;0.90;;;25.30;99.90;;;;;;4916194;29;20028;-49
2022/09/15 03:35:09;;;;;;;4.50;0.80;;;25.20;99.90;;;;;;4916238;29;20083;-49
2022/09/15 03:37:35;;;;;;;4.72;0.90;;;25.20;99.90;;;;;;4916090;29;20083;-49
2022/09/15 03:40:02;;;;;;;2.20;0.70;;;25.20;99.90;;;;;;4914806;29;20039;-49
2022/09/15 03:42:28;;;;;;;3.33;0.70;;;25.20;99.90;;;;;;4914497;29;20249;-49
2022/09/15 03:44:53;;;;;;;2.55;0.60;;;25.20;99.90;;;;;;4916151;29;20115;-49
2022/09/15 03:47:19;;;;;;;2.08;0.80;;;25.20;99.90;;;;;;4915478;29;20032;-49
2022/09/15 03:49:45;;;;;;;3.20;0.80;;;25.20;99.90;;;;;;4916171;29;20076;-48
2022/09/15 03:52:11;;;;;;;2.70;0.88;;;25.30;99.90;;;;;;4915967;29;20119;-49
2022/09/15 03:54:36;;;;;;;2.58;0.80;;;25.30;99.90;;;;;;4914916;29;20025;-49
2022/09/15 03:57:03;;;;;;;5.32;1.13;;;25.30;99.90;;;;;;4915983;29;20036;-49
2022/09/15 04:01:56;;;;;;;7.10;0.88;;;25.20;99.90;;;;;;4951614;28;20055;-53
2022/09/15 04:04:22;;;;;;;6.85;1.23;;;25.10;99.90;;;;;;4954384;28;20086;-53
2022/09/15 04:06:48;;;;;;;3.65;0.90;;;25.10;99.90;;;;;;4954260;28;20074;-53
2022/09/15 04:09:14;;;;;;;4.15;1.00;;;25.00;99.90;;;;;;4954103;28;20069;-53
2022/09/15 04:11:39;;;;;;;4.10;1.05;;;25.00;99.90;;;;;;4953938;28;20055;-53
2022/09/15 04:14:05;;;;;;;4.30;0.80;;;24.90;99.90;;;;;;4953897;28;20111;-53
2022/09/15 04:16:31;;;;;;;6.15;1.58;;;24.90;99.90;;;;;;4953892;28;20038;-52
2022/09/15 04:18:57;;;;;;;3.85;1.05;;;24.80;99.90;;;;;;4953708;28;20078;-53
2022/09/15 04:21:25;;;;;;;3.33;0.95;;;24.80;99.90;;;;;;4968933;28;20031;-52
2022/09/15 04:23:52;;;;;;;7.63;1.63;;;24.80;99.90;;;;;;4954014;28;20035;-52
2022/09/15 04:26:30;;;;;;;4.32;1.30;;;24.80;99.90;;;;;;4953780;28;20434;-52
2022/09/15 04:28:56;;;;;;;5.07;1.33;;;24.80;99.90;;;;;;4953605;28;20023;-52
2022/09/15 04:31:22;;;;;;;4.13;0.93;;;24.80;99.90;;;;;;4953880;28;20041;-53
2022/09/15 04:33:51;;;;;;;7.53;3.20;;;24.80;99.90;;;;;;4953696;28;20159;-52
2022/09/15 04:36:20;;;;;;;18.25;12.25;;;24.80;99.90;;;;;;4953604;28;20090;-52
2022/09/15 04:38:46;;;;;;;24.85;16.45;;;24.70;99.90;;;;;;4953426;28;20035;-52
2022/09/15 04:41:13;;;;;;;12.90;5.60;;;24.80;99.90;;;;;;4953598;28;20489;-52
2022/09/15 04:43:39;;;;;;;8.20;5.03;;;24.70;99.90;;;;;;4953564;28;20037;-52
2022/09/15 04:46:06;;;;;;;7.50;1.92;;;24.70;99.90;;;;;;4968215;28;20399;-53
2022/09/15 04:48:32;;;;;;;9.40;3.77;;;24.70;99.90;;;;;;4953601;28;20029;-53
2022/09/15 04:51:03;;;;;;;3.50;1.52;;;24.70;99.90;;;;;;4953381;28;20023;-52
2022/09/15 04:53:29;;;;;;;7.68;2.15;;;24.80;99.90;;;;;;4953193;28;20031;-53
2022/09/15 04:56:06;;;;;;;6.93;2.55;;;24.80;99.90;;;;;;4953460;28;20019;-52
2022/09/15 04:58:43;;;;;;;5.47;1.10;;;24.70;99.90;;;;;;4953287;28;20077;-53
2022/09/15 05:01:13;;;;;;;6.72;2.30;;;24.70;99.90;;;;;;4953225;28;20051;-52
2022/09/15 05:03:39;;;;;;;3.67;1.40;;;24.70;99.90;;;;;;4953055;28;20035;-52
2022/09/15 05:06:07;;;;;;;8.88;1.27;;;24.70;99.90;;;;;;4953170;28;20027;-52
2022/09/15 05:08:32;;;;;;;13.65;2.63;;;24.70;99.90;;;;;;4953294;28;20031;-53
2022/09/15 05:11:05;;;;;;;6.57;1.80;;;24.70;99.90;;;;;;4953133;28;20046;-52
2022/09/15 05:13:32;;;;;;;7.13;1.95;;;24.60;99.90;;;;;;4957239;28;20035;-52
2022/09/15 05:16:04;;;;;;;11.88;3.65;;;24.60;99.90;;;;;;4957105;28;20463;-52
2022/09/15 05:18:31;;;;;;;4.20;0.90;;;24.60;99.90;;;;;;4957018;28;20043;-52
2022/09/15 05:21:01;;;;;;;10.32;1.63;;;24.60;99.90;;;;;;4957145;28;20038;-52
2022/09/15 05:23:28;;;;;;;4.53;0.70;;;24.60;99.90;;;;;;4957124;28;20099;-52
2022/09/15 05:25:58;;;;;;;3.88;0.60;;;24.60;99.90;;;;;;4957253;28;20464;-52
2022/09/15 05:28:24;;;;;;;7.60;1.35;;;24.50;99.90;;;;;;4956986;28;20428;-52
2022/09/15 05:30:52;;;;;;;3.40;1.00;;;24.50;99.90;;;;;;4956839;28;20054;-52
2022/09/15 05:33:19;;;;;;;9.57;1.23;;;24.50;99.90;;;;;;4956957;28;20046;-51
2022/09/15 05:35:55;;;;;;;7.80;2.28;;;24.60;99.90;;;;;;4956862;28;20023;-52
2022/09/15 05:38:22;;;;;;;6.38;1.63;;;24.50;99.90;;;;;;4956708;28;20461;-52
2022/09/15 05:40:48;;;;;;;11.95;2.03;;;24.50;99.90;;;;;;4971443;28;20034;-53
2022/09/15 05:43:15;;;;;;;7.38;1.70;;;24.50;99.90;;;;;;4956682;28;20024;-52
2022/09/15 05:45:43;;;;;;;8.80;2.65;;;24.50;99.90;;;;;;4956667;28;20102;-52
2022/09/15 05:48:10;;;;;;;8.07;2.08;;;24.50;99.90;;;;;;4956442;28;20031;-52
2022/09/15 05:50:37;;;;;;;16.25;3.28;;;24.40;99.90;;;;;;4956509;28;20110;-52
2022/09/15 05:53:04;;;;;;;16.50;2.40;;;24.30;99.90;;;;;;4956267;28;20028;-52
2022/09/15 05:55:30;;;;;;;8.93;2.10;;;24.30;99.90;;;;;;4956391;28;20019;-53
2022/09/15 05:57:56;;;;;;;6.80;2.03;;;24.20;99.90;;;;;;4956376;28;20035;-53
2022/09/15 06:00:23;;;;;;;13.18;2.85;;;24.20;99.90;;;;;;4955910;28;20102;-52
2022/09/15 06:02:49;;;;;;;6.60;1.50;;;24.10;99.90;;;;;;4956073;28;20031;-53
2022/09/15 06:05:15;;;;;;;10.45;2.15;;;24.10;99.90;;;;;;4956180;28;20036;-52
2022/09/15 06:07:40;;;;;;;8.60;1.63;;;24.10;99.90;;;;;;4956101;28;20098;-52
2022/09/15 06:10:08;;;;;;;4.78;1.90;;;24.00;99.90;;;;;;4955907;28;20035;-52
2022/09/15 06:12:33;;;;;;;5.07;1.75;;;24.00;99.90;;;;;;4955966;28;20035;-52
2022/09/15 06:14:59;;;;;;;6.65;1.58;;;23.90;99.90;;;;;;4956083;28;20383;-52
2022/09/15 06:17:26;;;;;;;9.57;1.73;;;23.90;99.90;;;;;;4955913;28;20038;-52
2022/09/15 06:19:51;;;;;;;6.35;1.98;;;23.80;99.90;;;;;;4955827;28;20042;-52
2022/09/15 06:22:17;;;;;;;4.47;1.63;;;23.80;99.90;;;;;;4955420;28;20020;-52
2022/09/15 06:24:43;;;;;;;5.10;1.50;;;23.80;99.90;;;;;;4955601;28;20034;-52
2022/09/15 06:27:09;;;;;;;5.35;1.58;;;23.90;99.90;;;;;;4970584;28;20117;-52
2022/09/15 06:29:35;;;;;;;5.60;1.25;;;23.90;99.90;;;;;;4955584;28;20162;-52
2022/09/15 06:32:01;;;;;;;6.65;1.33;;;23.80;99.90;;;;;;4955885;28;20439;-52
2022/09/15 06:34:34;;;;;;;5.57;1.13;;;23.90;99.90;;;;;;4955731;28;20028;-52
2022/09/15 06:37:00;;;;;;;6.78;1.50;;;23.90;99.90;;;;;;4955603;28;20019;-52
2022/09/15 06:39:26;;;;;;;6.47;1.65;;;23.90;99.90;;;;;;4955315;28;20061;-52
2022/09/15 06:41:52;;;;;;;7.60;1.90;;;23.90;99.90;;;;;;4955255;28;20023;-52
2022/09/15 06:44:21;;;;;;;5.82;1.60;;;23.90;99.90;;;;;;4955187;28;20062;-52
2022/09/15 06:46:47;;;;;;;12.40;1.80;;;23.90;99.90;;;;;;4955098;28;20024;-52
2022/09/15 06:49:13;;;;;;;14.65;3.13;;;23.90;99.90;;;;;;4954980;28;20486;-52
2022/09/15 06:51:38;;;;;;;9.27;1.50;;;24.00;99.90;;;;;;4953873;29;20027;-53
2022/09/15 06:54:05;;;;;;;12.88;2.03;;;24.00;99.90;;;;;;4955064;28;20398;-52
2022/09/15 06:56:31;;;;;;;5.38;1.48;;;24.00;99.90;;;;;;4955148;28;20047;-52
2022/09/15 06:58:58;;;;;;;10.98;1.88;;;24.00;99.90;;;;;;4954806;28;20445;-52
2022/09/15 07:01:27;;;;;;;8.73;1.83;;;24.10;99.90;;;;;;4954850;28;20122;-53
2022/09/15 07:03:54;;;;;;;12.55;2.08;;;24.10;99.90;;;;;;4954906;28;20035;-52
2022/09/15 07:06:20;;;;;;;8.48;1.33;;;24.10;99.90;;;;;;4954692;28;20027;-52
2022/09/15 07:08:47;;;;;;;10.18;2.35;;;24.10;99.90;;;;;;4954790;28;20023;-52
2022/09/15 07:11:13;;;;;;;10.20;2.15;;;24.10;99.90;;;;;;4954830;28;20031;-52
2022/09/15 07:13:39;;;;;;;10.23;1.83;;;24.10;99.90;;;;;;4954826;28;20127;-52
2022/09/15 07:16:09;;;;;;;7.40;1.65;;;24.10;99.90;;;;;;4954788;28;20571;-52
2022/09/15 07:18:35;;;;;;;9.27;1.55;;;24.20;99.90;;;;;;4954690;28;20031;-52
2022/09/15 07:21:06;;;;;;;4.85;1.70;;;24.20;99.90;;;;;;4954687;28;20098;-52
2022/09/15 07:23:34;;;;;;;4.75;1.50;;;24.20;99.90;;;;;;4954655;28;20487;-52
2022/09/15 07:26:18;;;;;;;53.67;6.95;;;24.30;99.90;;;;;;4954560;28;20062;-52
2022/09/15 07:28:46;;;;;;;30.58;5.15;;;24.30;99.90;;;;;;4952975;29;20031;-52
2022/09/15 07:31:14;;;;;;;13.20;3.55;;;24.30;99.90;;;;;;4954233;28;20078;-51
2022/09/15 07:33:40;;;;;;;14.50;4.03;;;24.40;99.90;;;;;;4953744;28;20174;-52
2022/09/15 07:36:07;;;;;;;20.65;3.70;;;24.40;99.90;;;;;;4953800;28;20027;-52
2022/09/15 07:38:37;;;;;;;13.75;3.10;;;24.40;99.90;;;;;;4954181;28;20122;-52
2022/09/15 07:41:08;;;;;;;7.93;3.20;;;24.40;99.90;;;;;;4954428;28;20074;-51
2022/09/15 07:43:34;;;;;;;6.47;1.90;;;24.40;99.90;;;;;;4954186;28;20052;-52
2022/09/15 07:46:01;;;;;;;12.65;2.35;;;24.40;99.90;;;;;;4954151;28;20023;-51
2022/09/15 07:48:27;;;;;;;8.47;2.13;;;24.40;99.90;;;;;;4954098;28;20035;-52
2022/09/15 07:50:53;;;;;;;9.10;2.63;;;24.40;99.90;;;;;;4953884;28;20019;-52
2022/09/15 07:53:19;;;;;;;8.10;1.02;;;24.40;99.90;;;;;;4953973;28;20031;-52
2022/09/15 07:55:50;;;;;;;7.38;1.65;;;24.50;99.90;;;;;;4953786;28;20050;-51
2022/09/15 07:58:16;;;;;;;17.42;3.17;;;24.50;99.90;;;;;;4953829;28;20038;-51
2022/09/15 08:00:41;;;;;;;10.52;1.95;;;24.50;99.90;;;;;;4953467;28;20051;-52
2022/09/15 08:03:07;;;;;;;10.23;1.98;;;24.50;99.90;;;;;;4954032;28;20114;-52
2022/09/15 08:05:33;;;;;;;9.07;2.10;;;24.50;99.90;;;;;;4954136;28;20042;-52
2022/09/15 08:07:58;;;;;;;9.52;2.28;;;24.50;99.90;;;;;;4953798;28;20090;-52
2022/09/15 08:10:25;;;;;;;11.05;1.58;;;24.50;99.90;;;;;;4953727;28;20027;-51
2022/09/15 08:12:53;;;;;;;7.95;2.30;;;24.60;99.90;;;;;;4953603;28;20403;-52
2022/09/15 08:15:20;;;;;;;4.95;1.30;;;24.60;99.90;;;;;;4952659;29;20487;-52
2022/09/15 08:17:46;;;;;;;7.30;1.20;;;24.60;99.90;;;;;;4953544;28;20085;-52
2022/09/15 08:20:12;;;;;;;6.57;1.20;;;24.60;99.90;;;;;;4953487;28;20118;-52
2022/09/15 08:22:38;;;;;;;6.15;1.08;;;24.60;99.90;;;;;;4953861;28;20023;-51
2022/09/15 08:25:05;;;;;;;10.98;1.27;;;24.60;99.90;;;;;;4953929;28;20038;-52
2022/09/15 08:27:31;;;;;;;9.85;1.17;;;24.70;99.90;;;;;;4953629;28;20042;-52
2022/09/15 08:29:57;;;;;;;9.20;1.42;;;24.70;99.90;;;;;;4953616;28;20538;-52
2022/09/15 08:32:22;;;;;;;13.85;2.15;;;24.70;99.90;;;;;;4953417;28;20468;-52
2022/09/15 08:34:48;;;;;;;5.28;1.25;;;24.80;99.90;;;;;;4953350;28;20058;-51
2022/09/15 08:37:15;;;;;;;9.70;2.13;;;24.80;99.90;;;;;;4953312;28;20024;-52
2022/09/15 08:39:40;;;;;;;5.07;1.50;;;24.80;99.90;;;;;;4953205;28;20039;-52
2022/09/15 08:42:13;;;;;;;5.07;1.30;;;24.90;99.90;;;;;;4953458;28;20380;-52
2022/09/15 08:44:59;;;;;;;8.40;1.33;;;24.90;99.90;;;;;;4953540;28;20032;-51
2022/09/15 08:47:39;;;;;;;8.85;1.60;;;24.90;99.90;;;;;;4953113;28;20024;-52
2022/09/15 08:50:33;;;;;;;8.05;1.45;;;24.90;99.90;;;;;;4953344;28;20027;-51
2022/09/15 08:53:08;;;;;;;7.60;1.30;;;24.90;99.90;;;;;;4953295;28;20107;-51
2022/09/15 08:55:47;;;;;;;4.22;1.65;;;25.00;99.90;;;;;;4952996;28;20023;-51
2022/09/15 08:58:29;;;;;;;7.50;1.48;;;25.00;99.90;;;;;;4952941;28;20035;-52
2022/09/15 09:01:09;;;;;;;7.80;1.77;;;25.00;99.90;;;;;;4952780;28;20043;-52
2022/09/15 09:04:19;;;;;;;6.63;1.83;;;25.00;99.90;;;;;;4953049;28;20027;-51
2022/09/15 09:07:27;;;;;;;6.75;1.38;;;25.10;99.90;;;;;;4952984;28;20067;-52
2022/09/15 09:10:18;;;;;;;7.18;2.17;;;25.10;99.90;;;;;;4953048;28;20027;-52
2022/09/15 09:12:46;;;;;;;8.43;2.00;;;25.10;99.90;;;;;;4952927;28;20038;-52
2022/09/15 09:15:43;;;;;;;3.50;1.33;;;25.20;99.90;;;;;;4953113;28;20031;-51
2022/09/15 09:18:28;;;;;;;11.70;1.48;;;25.20;99.90;;;;;;4952876;28;20038;-52
2022/09/15 09:21:12;;;;;;;8.32;1.73;;;25.30;99.90;;;;;;4952830;28;20035;-52
2022/09/15 09:24:05;;;;;;;5.28;1.58;;;25.30;99.90;;;;;;4952929;28;20027;-52
2022/09/15 09:26:35;;;;;;;4.57;1.88;;;25.30;99.90;;;;;;4952858;28;20023;-52
2022/09/15 09:29:11;;;;;;;5.90;1.52;;;25.30;99.90;;;;;;4952703;28;20383;-51
2022/09/15 09:31:37;;;;;;;8.95;1.55;;;25.40;99.90;;;;;;4952687;28;20038;-53
2022/09/15 09:34:27;;;;;;;6.20;1.40;;;25.40;99.90;;;;;;4951376;28;20024;-51
2022/09/15 09:36:58;;;;;;;7.03;1.70;;;25.40;99.90;;;;;;4952837;28;20031;-52
2022/09/15 09:39:24;;;;;;;5.90;1.88;;;25.50;99.90;;;;;;4952742;28;20035;-52
2022/09/15 09:41:50;;;;;;;3.70;0.85;;;25.50;99.90;;;;;;4952945;28;20416;-52
2022/09/15 09:44:18;;;;;;;3.22;0.85;;;25.50;99.90;;;;;;4951596;29;20188;-53
2022/09/15 09:46:45;;;;;;;6.35;1.42;;;25.60;99.90;;;;;;4952976;28;20035;-52
2022/09/15 09:49:26;;;;;;;7.57;1.20;;;25.60;99.90;;;;;;4951732;29;20024;-53
2022/09/15 09:51:51;;;;;;;6.68;1.70;;;25.70;99.90;;;;;;4952703;28;20114;-51
2022/09/15 09:54:19;;;;;;;6.72;1.27;;;25.70;99.90;;;;;;4952585;28;20583;-52
2022/09/15 09:56:48;;;;;;;7.30;2.00;;;25.80;99.90;;;;;;4952631;28;20383;-52
2022/09/15 09:59:41;;;;;;;7.43;1.23;;;25.90;99.90;;;;;;4954730;29;20403;-52
2022/09/15 10:02:10;;;;;;;13.13;2.72;;;25.90;99.90;;;;;;4956053;28;20035;-52
2022/09/15 10:04:36;;;;;;;8.48;2.60;;;25.90;99.90;;;;;;4956195;28;21022;-52
2022/09/15 10:07:03;;;;;;;7.95;3.53;;;25.90;99.90;;;;;;4955993;28;20184;-52
2022/09/15 10:09:29;;;;;;;7.45;2.60;;;26.00;99.90;;;;;;4954876;28;20034;-52
2022/09/15 10:11:58;;;;;;;5.78;1.88;;;26.00;99.90;;;;;;4955993;28;20464;-52
2022/09/15 10:14:29;;;;;;;4.22;1.02;;;26.10;99.90;;;;;;4956005;28;20023;-52
2022/09/15 10:17:16;;;;;;;9.70;1.90;;;26.20;99.90;;;;;;4955888;28;20063;-52
2022/09/15 10:19:48;;;;;;;4.28;1.20;;;26.10;99.90;;;;;;4955960;28;20199;-52
2022/09/15 10:22:35;;;;;;;3.75;1.48;;;26.20;99.90;;;;;;4955778;28;20030;-52
2022/09/15 10:25:25;;;;;;;3.95;1.38;;;26.20;99.90;;;;;;4955579;28;20160;-53
2022/09/15 10:28:15;;;;;;;7.10;1.25;;;26.30;99.90;;;;;;4955571;28;20035;-52
2022/09/15 10:31:10;;;;;;;9.70;1.92;;;26.30;99.90;;;;;;4955791;28;20031;-52
2022/09/15 10:33:39;;;;;;;5.68;2.10;;;26.40;99.90;;;;;;4955469;28;20023;-53
2022/09/15 10:36:15;;;;;;;4.90;1.17;;;26.40;99.90;;;;;;4955485;28;20035;-53
2022/09/15 10:39:14;;;;;;;7.00;0.95;;;26.40;99.90;;;;;;4942034;29;20098;-52
2022/09/15 10:41:50;;;;;;;3.85;1.20;;;26.50;99.90;;;;;;4946421;28;20038;-53
2022/09/15 10:44:47;;;;;;;5.90;1.27;;;26.60;99.90;;;;;;4946418;28;20051;-52
2022/09/15 10:47:18;;;;;;;5.22;1.13;;;26.60;99.90;;;;;;4945264;29;20035;-51
2022/09/15 10:50:17;;;;;;;5.05;1.20;;;26.70;99.90;;;;;;4942220;28;20070;-53
2022/09/15 10:52:46;;;;;;;5.30;1.10;;;26.70;99.90;;;;;;4936017;29;20024;-52
2022/09/15 10:55:22;;;;;;;7.57;2.45;;;26.80;99.90;;;;;;4935883;29;20032;-52
2022/09/15 10:58:05;;;;;;;4.40;1.40;;;26.90;99.90;;;;;;4940760;29;20024;-52
2022/09/15 11:01:05;;;;;;;8.30;1.55;;;26.90;99.90;;;;;;4935751;29;20426;-53
2022/09/15 11:04:09;;;;;;;8.45;1.63;;;27.00;99.90;;;;;;4936714;29;20051;-51
2022/09/15 11:06:48;;;;;;;5.72;1.40;;;27.10;99.90;;;;;;4941890;28;20058;-67
2022/09/15 11:09:26;;;;;;;8.63;2.42;;;27.20;99.90;;;;;;4939898;28;20039;-53
2022/09/15 11:12:28;;;;;;;5.30;1.20;;;27.20;99.90;;;;;;4951041;28;20063;-55
2022/09/15 11:14:57;;;;;;;5.63;1.50;;;27.20;99.90;;;;;;4948455;28;20171;-53
2022/09/15 11:17:26;;;;;;;8.23;1.85;;;27.20;99.90;;;;;;4943468;29;20114;-55
2022/09/15 11:20:02;;;;;;;7.70;1.52;;;27.20;99.90;;;;;;4940507;29;20041;-54
2022/09/15 11:22:35;;;;;;;11.63;1.70;;;27.20;99.90;;;;;;4954744;28;20386;-54
2022/09/15 11:25:24;;;;;;;5.68;1.50;;;27.30;99.90;;;;;;4954599;28;20505;-54
2022/09/15 11:28:26;;;;;;;4.70;1.38;;;27.30;99.90;;;;;;4953613;28;20027;-55
2022/09/15 11:31:00;;;;;;;9.63;2.40;;;27.30;99.90;;;;;;4942520;29;20479;-53
2022/09/15 11:33:36;;;;;;;8.52;1.80;;;27.30;99.90;;;;;;4954485;28;20047;-52
2022/09/15 11:36:14;;;;;;;10.13;2.13;;;27.40;99.90;;;;;;4951064;28;20046;-53
2022/09/15 11:39:22;;;;;;;10.98;3.05;;;27.50;99.90;;;;;;4934981;29;20036;-54
2022/09/15 11:41:55;;;;;;;5.82;1.98;;;27.50;99.90;;;;;;4935105;29;20128;-54
2022/09/15 11:44:33;;;;;;;5.50;1.48;;;27.60;99.90;;;;;;4935138;29;20523;-54
2022/09/15 11:47:21;;;;;;;7.10;1.80;;;27.60;99.90;;;;;;4933890;29;20030;-54
2022/09/15 11:50:12;;;;;;;6.35;2.00;;;27.60;99.90;;;;;;4939989;28;20123;-55
2022/09/15 11:52:59;;;;;;;6.70;1.52;;;27.70;99.90;;;;;;4942708;29;20137;-55
2022/09/15 11:55:46;;;;;;;10.68;2.08;;;27.60;99.90;;;;;;4943838;28;20026;-54
2022/09/15 11:58:48;;;;;;;7.25;1.65;;;27.60;99.90;;;;;;4935013;29;20388;-53
2022/09/15 12:01:45;;;;;;;8.43;1.63;;;27.60;99.90;;;;;;4939743;28;20109;-53
2022/09/15 12:04:39;;;;;;;9.98;2.53;;;27.70;99.90;;;;;;4952544;29;20055;-53
2022/09/15 12:07:12;;;;;;;8.52;2.20;;;27.70;99.90;;;;;;4952067;29;20038;-54
2022/09/15 12:09:38;;;;;;;8.52;2.35;;;27.80;99.90;;;;;;4953932;28;20049;-53
2022/09/15 12:12:14;;;;;;;7.63;2.25;;;27.90;99.90;;;;;;4953883;28;20031;-54
2022/09/15 12:14:49;;;;;;;9.05;3.38;;;27.90;99.90;;;;;;4952434;28;20073;-54
2022/09/15 12:17:51;;;;;;;8.85;2.47;;;27.90;99.90;;;;;;4953828;28;20046;-52
2022/09/15 12:20:25;;;;;;;7.35;2.25;;;28.00;99.90;;;;;;4943520;28;20058;-54
2022/09/15 12:23:01;;;;;;;11.50;4.15;;;28.00;99.90;;;;;;4951786;28;20055;-56
2022/09/15 12:25:44;;;;;;;8.57;2.67;;;28.00;99.90;;;;;;4951006;28;20038;-55
2022/09/15 12:28:37;;;;;;;5.10;2.40;;;28.00;99.90;;;;;;4945747;28;20020;-55
2022/09/15 12:31:13;;;;;;;8.00;1.98;;;27.90;99.90;;;;;;4941382;28;20065;-54
2022/09/15 12:34:09;;;;;;;5.20;1.80;;;27.90;99.90;;;;;;4941883;29;20027;-53
2022/09/15 12:36:42;;;;;;;9.83;4.50;;;27.90;99.90;;;;;;4930197;29;20386;-54
2022/09/15 12:39:22;;;;;;;7.45;3.50;;;27.90;99.90;;;;;;4948072;28;20125;-54
2022/09/15 12:42:00;;;;;;;4.15;1.48;;;27.80;99.90;;;;;;4944553;28;20028;-57
2022/09/15 12:44:34;;;;;;;6.65;1.20;;;27.80;99.90;;;;;;4947181;28;20395;-56
2022/09/15 12:47:02;;;;;;;9.82;3.38;;;27.70;99.90;;;;;;4943532;29;20038;-59
2022/09/15 12:49:35;;;;;;;6.65;1.35;;;27.60;99.90;;;;;;4947054;28;20036;-55
2022/09/15 12:52:06;;;;;;;5.13;1.42;;;27.60;99.90;;;;;;4946099;28;20115;-55
2022/09/15 12:54:34;;;;;;;6.20;1.63;;;27.60;99.90;;;;;;4933946;28;20024;-53
2022/09/15 12:57:01;;;;;;;4.95;1.30;;;27.60;99.90;;;;;;4944336;28;20060;-54
2022/09/15 12:59:28;;;;;;;5.72;0.82;;;27.50;99.90;;;;;;4945487;28;20053;-55
2022/09/15 13:01:54;;;;;;;6.05;1.27;;;27.50;99.90;;;;;;4950183;28;20113;-56
2022/09/15 13:04:41;;;;;;;5.80;1.55;;;27.50;99.90;;;;;;4945829;28;20417;-56
2022/09/15 13:07:30;;;;;;;;;;;27.50;99.90;;;;;;4945142;28;20031;-52
2022/09/15 13:10:28;;;;;;;4.00;1.25;;;27.50;99.90;;;;;;4945207;29;20348;-53
2022/09/15 13:13:13;;;;;;;9.38;1.83;;;27.40;99.90;;;;;;4947257;29;20027;-54
2022/09/15 13:15:43;;;;;;;7.53;1.33;;;27.40;99.90;;;;;;4940729;28;20028;-53